Sezela, South Africa

6:50 PM SAST on July 04, 2015 (GMT +0200)
South Coast natal at beach, indian ocean | | Change Station
CLOSE
Current Station
Personal Weather Station
Location: Pennington, KWAZULU-NATAL
Elevation: 33 ft
Nearby Weather Stations

Elev 33 ft 30.38 °S, 30.70 °E | Updated 0 second ago

Clear
Clear
68.3 °F
Feels Like 68.3 °F
N
2.7
Wind Variable Wind from West
Gusts 3.4 mph

Today
High -- | Low -- °F
--% Chance of Precip.
Yesterday
High -- | Low -- °F
Precip. -- in
6:54 AM 5:08 PM
Waning Gibbous, 91% visible
Pressure 30.15 in
Visibility 5.6 miles
Clouds
Dew Point 48 °F
Humidity 47%
Rainfall 0.00 in
Snow Depth Not available.
UV 0.0 out of 12
Pollen Not available.
Air Quality Not available.
Flu Activity Not available.
METAR FALE 041600Z 13003KT 100V160 9000 NSC 17/16 Q1021 NOSIG

More Conditions Fewer Conditions

Pressure 30.15 in
Visibility 5.6 miles
Clouds
Dew Point 48 °F
Humidity 47%
Rainfall 0.00 in
Snow Depth Not available.
UV 0.0 out of 12
Pollen Not available.
Air Quality Not available.
Flu Activity Not available.
METAR FALE 041600Z 13003KT 100V160 9000 NSC 17/16 Q1021 NOSIG

More Conditions Fewer Conditions

10-Day Weather Forecast

×

Almanac

Astronomy

Jul. 04, 2015 Rise Set
Actual Time
Civil Twilight
Nautical Twilight
Astronomical Twilight
Moon
Length of Visible Light
Length of Day
Tomorrow will be .
, % of the Moon is Illuminated

Today's Extremes

Country Highs Country Lows

Community

WunderPhotos

Upload Photos

1,835,000 photos uploaded!

WunderBlogs® & News

Nearby

Air Quality

  Air Quality AQ Index Pollutant
Not available.

Snow Depth

Station Depth Elevation

Earthquake Activity

City Distance Mag. Time & Date
Minimum magnitude displayed is 2.5.

Coastal Water Temperatures

Place Temperature

Stations

Nearby Weather Stations

Station Location Temp. Windchill Dew Point Humidity Wind Precip. Elev Updated Type